createdAt,value
2024-02-21T00:03:30.918Z,20.47
2024-02-21T00:08:25.518Z,20.53
2024-02-21T00:13:18.817Z,22.13
2024-02-21T00:18:13.022Z,20.90
2024-02-21T00:23:06.748Z,20.33
2024-02-21T00:28:01.385Z,21.07
2024-02-21T00:32:54.633Z,20.97
2024-02-21T00:37:47.985Z,19.67
2024-02-21T00:42:41.359Z,21.73
2024-02-21T00:47:36.361Z,22.00
2024-02-21T00:52:29.571Z,20.77
2024-02-21T00:57:23.297Z,19.60
2024-02-21T01:02:16.766Z,21.97
2024-02-21T01:07:11.436Z,23.03
2024-02-21T01:12:04.925Z,26.27
2024-02-21T01:16:58.267Z,20.67
2024-02-21T01:21:51.496Z,21.33
2024-02-21T01:26:46.201Z,21.70
2024-02-21T01:31:39.319Z,20.80
2024-02-21T01:36:32.591Z,21.77
2024-02-21T01:41:25.977Z,22.57
2024-02-21T01:46:21.038Z,22.40
2024-02-21T01:51:14.769Z,20.10
2024-02-21T01:56:08.704Z,19.30
2024-02-21T02:01:02.073Z,18.20
2024-02-21T02:05:56.737Z,18.63
2024-02-21T02:10:50.085Z,18.07
2024-02-21T02:15:44.259Z,18.13
2024-02-21T02:20:38.016Z,18.87
2024-02-21T02:25:32.682Z,19.03
2024-02-21T02:30:25.943Z,20.30
2024-02-21T02:35:21.468Z,19.87
2024-02-21T02:40:15.187Z,18.50
2024-02-21T02:45:11.013Z,18.30
2024-02-21T02:50:04.566Z,19.83
2024-02-21T02:54:57.773Z,18.70
2024-02-21T02:59:51.155Z,17.03
2024-02-21T03:04:46.131Z,17.90
2024-02-21T03:09:39.534Z,20.10
2024-02-21T03:14:33.103Z,19.27
2024-02-21T03:19:26.776Z,18.63
2024-02-21T03:24:22.071Z,20.00
2024-02-21T03:29:15.688Z,18.33
2024-02-21T03:34:08.957Z,19.07
2024-02-21T03:39:02.378Z,20.10
2024-02-21T03:43:56.972Z,21.87
2024-02-21T03:48:50.408Z,18.07
2024-02-21T03:53:44.528Z,19.37
2024-02-21T03:58:37.966Z,18.63
2024-02-21T04:03:32.877Z,19.70
2024-02-21T04:08:37.859Z,19.83
2024-02-21T04:14:18.475Z,18.37
2024-02-21T04:19:13.927Z,18.20
2024-02-21T04:24:07.726Z,20.10
2024-02-21T04:29:01.222Z,17.93
2024-02-21T04:33:58.987Z,18.20
2024-02-21T04:38:53.826Z,19.40
2024-02-21T04:43:48.467Z,20.83
2024-02-21T04:48:45.000Z,18.80
2024-02-21T04:53:40.905Z,19.93
2024-02-21T04:58:35.538Z,19.20
2024-02-21T05:03:28.685Z,19.13
2024-02-21T05:08:22.004Z,18.07
2024-02-21T05:13:15.323Z,16.90
2024-02-21T05:18:09.971Z,17.73
2024-02-21T05:23:03.394Z,17.50
2024-02-21T05:27:57.173Z,18.67
2024-02-21T05:32:50.435Z,19.33
2024-02-21T05:37:45.052Z,16.37
2024-02-21T05:42:38.225Z,17.57
2024-02-21T05:47:33.257Z,19.50
2024-02-21T05:52:26.475Z,17.20
2024-02-21T05:57:21.248Z,18.07
2024-02-21T06:02:14.647Z,17.00
2024-02-21T06:07:08.250Z,18.63
2024-02-21T06:12:01.648Z,19.20
2024-02-21T06:16:56.456Z,19.80
2024-02-21T06:21:49.699Z,17.37
2024-02-21T06:26:44.824Z,20.50
2024-02-21T06:31:44.774Z,22.83
2024-02-21T06:36:39.308Z,20.60
2024-02-21T06:41:34.051Z,22.07
2024-02-21T06:46:30.954Z,22.40
2024-02-21T06:51:24.350Z,25.97
2024-02-21T06:56:19.101Z,28.93
2024-02-21T07:01:12.963Z,20.60
2024-02-21T07:06:06.953Z,21.53
2024-02-21T07:11:03.166Z,32.20
2024-02-21T07:16:11.076Z,40.87
2024-02-21T07:21:14.691Z,32.77
2024-02-21T07:26:08.038Z,29.27
2024-02-21T07:31:03.043Z,30.00
2024-02-21T07:35:56.361Z,33.30
2024-02-21T07:40:49.618Z,27.40
2024-02-21T07:45:42.871Z,27.90
2024-02-21T07:50:40.139Z,23.43
2024-02-21T07:55:33.664Z,20.33
2024-02-21T08:00:26.835Z,27.10
2024-02-21T08:05:20.344Z,21.90
2024-02-21T08:10:15.227Z,18.67
2024-02-21T08:15:09.654Z,17.00
2024-02-21T08:20:05.271Z,16.40
2024-02-21T08:24:59.343Z,21.33
2024-02-21T08:29:54.036Z,21.37
2024-02-21T08:34:50.405Z,18.60
2024-02-21T08:39:43.662Z,17.38
2024-02-21T08:44:36.905Z,13.60
2024-02-21T08:49:34.447Z,16.48
2024-02-21T08:54:28.397Z,17.40
2024-02-21T08:59:21.926Z,14.63
2024-02-21T09:04:15.168Z,12.95
2024-02-21T09:09:09.968Z,13.52
2024-02-21T09:14:05.072Z,13.40
2024-02-21T09:18:58.844Z,15.82
2024-02-21T09:23:52.089Z,15.60
2024-02-21T09:28:49.355Z,15.57
2024-02-21T09:33:45.124Z,15.10
2024-02-21T09:38:39.629Z,14.13
2024-02-21T09:43:36.065Z,13.48
2024-02-21T09:48:46.050Z,14.80
2024-02-21T09:53:40.303Z,15.83
2024-02-21T09:58:34.895Z,20.42
2024-02-21T10:03:31.197Z,16.95
2024-02-21T10:08:25.927Z,15.45
2024-02-21T10:13:28.004Z,16.63
2024-02-21T10:18:21.456Z,15.48
2024-02-21T10:23:14.734Z,15.50
2024-02-21T10:28:09.527Z,17.85
2024-02-21T10:33:03.290Z,17.65
2024-02-21T10:37:57.455Z,16.90
2024-02-21T10:42:54.902Z,19.75
2024-02-21T10:47:58.289Z,18.80
2024-02-21T10:53:02.664Z,18.38
2024-02-21T10:57:57.001Z,19.83
2024-02-21T11:02:52.258Z,21.85
2024-02-21T11:07:45.893Z,22.33
2024-02-21T11:12:39.525Z,23.40
2024-02-21T11:17:32.846Z,21.98
2024-02-21T11:22:32.595Z,27.13
2024-02-21T11:27:28.488Z,23.10
2024-02-21T11:32:22.858Z,19.65
2024-02-21T11:37:18.446Z,19.70
2024-02-21T11:42:13.879Z,21.45
2024-02-21T11:47:07.998Z,24.90
2024-02-21T11:52:03.277Z,17.05
2024-02-21T11:56:56.643Z,18.13
2024-02-21T12:01:53.184Z,17.17
2024-02-21T12:06:47.891Z,17.85
2024-02-21T12:11:41.234Z,19.17
2024-02-21T12:16:35.474Z,21.50
2024-02-21T12:21:34.090Z,18.35
2024-02-21T12:26:28.792Z,16.40
2024-02-21T12:31:22.740Z,16.17
2024-02-21T12:36:16.168Z,13.95
2024-02-21T12:41:14.530Z,13.85
2024-02-21T12:46:08.599Z,15.15
2024-02-21T12:51:02.052Z,16.50
2024-02-21T12:55:55.426Z,16.27
2024-02-21T13:00:50.499Z,15.13
2024-02-21T13:05:44.041Z,14.82
2024-02-21T13:10:37.685Z,15.98
2024-02-21T13:15:31.037Z,16.08
2024-02-21T13:20:25.897Z,16.15
2024-02-21T13:25:22.129Z,15.30
2024-02-21T13:30:18.767Z,14.75
2024-02-21T13:35:13.601Z,14.85
2024-02-21T13:40:11.235Z,13.73
2024-02-21T13:45:06.448Z,13.32
2024-02-21T13:49:59.863Z,13.75
2024-02-21T13:54:56.059Z,15.00
2024-02-21T13:59:53.533Z,14.88
2024-02-21T14:04:48.403Z,13.23
2024-02-21T14:09:41.671Z,13.88
2024-02-21T14:14:36.794Z,13.98
2024-02-21T14:19:33.306Z,14.25
2024-02-21T14:24:33.168Z,13.25
2024-02-21T14:29:26.501Z,14.40
2024-02-21T14:34:22.078Z,13.10
2024-02-21T14:39:16.847Z,12.50
2024-02-21T14:44:11.247Z,13.32
2024-02-21T14:49:04.854Z,12.35
2024-02-21T14:54:02.289Z,12.13
2024-02-21T14:59:05.788Z,13.75
2024-02-21T15:04:05.773Z,13.60
2024-02-21T15:08:59.062Z,14.05
2024-02-21T15:13:52.778Z,14.38
2024-02-21T15:18:57.063Z,15.93
2024-02-21T15:23:50.571Z,13.85
2024-02-21T15:28:44.003Z,18.48
2024-02-21T15:33:39.513Z,25.48
2024-02-21T15:38:36.817Z,25.98
2024-02-21T15:43:30.092Z,23.42
2024-02-21T15:48:26.169Z,27.98
2024-02-21T15:53:25.018Z,28.43
2024-02-21T15:58:24.062Z,29.52
2024-02-21T16:04:07.989Z,30.95
2024-02-21T16:09:01.388Z,33.65
2024-02-21T16:13:56.588Z,31.88
2024-02-21T16:18:49.972Z,26.08
2024-02-21T16:23:45.264Z,21.67
2024-02-21T16:28:39.923Z,20.60
2024-02-21T16:33:43.869Z,30.13
2024-02-21T16:38:42.568Z,28.85
2024-02-21T16:43:36.020Z,25.13
2024-02-21T16:48:30.852Z,24.38
2024-02-21T16:53:28.716Z,26.98
2024-02-21T16:58:25.029Z,34.13
2024-02-21T17:03:22.070Z,34.80
2024-02-21T17:08:16.112Z,49.40
2024-02-21T17:13:13.244Z,54.33
2024-02-21T17:18:10.138Z,53.63
2024-02-21T17:23:04.240Z,47.17
2024-02-21T17:27:59.889Z,45.08
2024-02-21T17:32:57.638Z,41.15
2024-02-21T17:37:51.105Z,44.92
2024-02-21T17:42:44.362Z,35.58
2024-02-21T17:47:40.044Z,33.22
2024-02-21T17:52:36.717Z,31.05
2024-02-21T17:57:34.584Z,19.00
2024-02-21T18:02:29.384Z,23.50
2024-02-21T18:07:22.877Z,22.92
2024-02-21T18:12:18.153Z,20.98
2024-02-21T18:17:11.509Z,22.58
2024-02-21T18:22:05.045Z,26.30
2024-02-21T18:26:59.222Z,21.20
2024-02-21T18:31:56.831Z,23.23
2024-02-21T18:36:50.089Z,21.40
2024-02-21T18:41:46.490Z,20.33
2024-02-21T18:46:40.239Z,26.27
2024-02-21T18:51:34.958Z,23.10
2024-02-21T18:56:29.728Z,25.83
2024-02-21T19:01:23.400Z,20.75
2024-02-21T19:06:20.826Z,16.50
2024-02-21T19:11:16.001Z,14.10
2024-02-21T19:16:16.658Z,24.92
2024-02-21T19:21:10.151Z,24.92
2024-02-21T19:26:08.002Z,28.63
2024-02-21T19:31:04.339Z,21.40
2024-02-21T19:35:57.770Z,15.70
2024-02-21T19:40:52.436Z,26.45
2024-02-21T19:45:47.778Z,24.20
2024-02-21T19:50:43.142Z,18.33
2024-02-21T19:55:49.504Z,19.73
2024-02-21T20:00:45.357Z,20.23
2024-02-21T20:05:41.112Z,24.45
2024-02-21T20:10:35.859Z,18.40
2024-02-21T20:15:29.421Z,17.10
2024-02-21T20:20:25.758Z,16.60
2024-02-21T20:25:26.995Z,18.30
2024-02-21T20:30:25.098Z,18.23
2024-02-21T20:35:19.590Z,17.52
2024-02-21T20:40:13.455Z,16.67
2024-02-21T20:45:10.276Z,14.65
2024-02-21T20:50:05.386Z,13.83
2024-02-21T20:55:06.926Z,14.20
2024-02-21T21:00:09.437Z,12.13
2024-02-21T21:05:09.800Z,14.87
2024-02-21T21:10:05.086Z,14.27
2024-02-21T21:14:58.412Z,12.57
2024-02-21T21:19:53.961Z,13.73
2024-02-21T21:24:51.529Z,12.60
2024-02-21T21:29:44.781Z,12.05
2024-02-21T21:34:38.418Z,11.75
2024-02-21T21:39:32.130Z,12.73
2024-02-21T21:44:26.945Z,13.10
2024-02-21T21:49:21.710Z,35.97
2024-02-21T21:54:15.066Z,27.30
2024-02-21T21:59:12.675Z,20.45
2024-02-21T22:04:07.770Z,36.65
2024-02-21T22:09:01.187Z,18.38
2024-02-21T22:13:54.654Z,26.73
2024-02-21T22:18:48.108Z,30.20
2024-02-21T22:23:45.940Z,20.90
2024-02-21T22:28:39.358Z,25.88
2024-02-21T22:33:32.593Z,23.80
2024-02-21T22:38:26.092Z,27.73
2024-02-21T22:43:20.923Z,28.40
2024-02-21T22:48:14.395Z,11.40
2024-02-21T22:53:07.723Z,10.05
2024-02-21T22:58:01.083Z,7.90
2024-02-21T23:02:55.867Z,7.53
2024-02-21T23:07:51.315Z,8.25
2024-02-21T23:12:45.204Z,7.88
2024-02-21T23:17:40.293Z,7.95
2024-02-21T23:22:35.016Z,8.68
2024-02-21T23:27:28.426Z,8.55
2024-02-21T23:32:21.871Z,9.50
2024-02-21T23:37:15.613Z,7.60
2024-02-21T23:42:10.400Z,7.15
2024-02-21T23:47:03.668Z,7.57
2024-02-21T23:51:56.994Z,8.07
2024-02-21T23:56:50.422Z,7.18
